sensor_id;sensor_type;location;lat;lon;timestamp;pressure;altitude;pressure_sealevel;temperature;humidity
74103;BME280;62853;46.166;3.640;2023-07-22T00:00:15;101280.50;;;15.72;100.00
74103;BME280;62853;46.166;3.640;2023-07-22T00:02:43;101283.28;;;15.71;100.00
74103;BME280;62853;46.166;3.640;2023-07-22T00:05:09;101276.47;;;15.67;100.00
74103;BME280;62853;46.166;3.640;2023-07-22T00:07:38;101278.72;;;15.60;100.00
74103;BME280;62853;46.166;3.640;2023-07-22T00:10:06;101276.78;;;15.49;100.00
74103;BME280;62853;46.166;3.640;2023-07-22T00:12:32;101275.19;;;15.59;100.00
74103;BME280;62853;46.166;3.640;2023-07-22T00:14:58;101268.63;;;15.52;100.00
74103;BME280;62853;46.166;3.640;2023-07-22T00:17:24;101275.63;;;15.53;100.00
74103;BME280;62853;46.166;3.640;2023-07-22T00:19:49;101277.75;;;15.61;100.00
74103;BME280;62853;46.166;3.640;2023-07-22T00:22:15;101272.53;;;15.59;100.00
74103;BME280;62853;46.166;3.640;2023-07-22T00:24:41;101265.31;;;15.61;100.00
74103;BME280;62853;46.166;3.640;2023-07-22T00:27:06;101267.97;;;15.74;100.00
74103;BME280;62853;46.166;3.640;2023-07-22T00:29:36;101266.16;;;15.75;100.00
74103;BME280;62853;46.166;3.640;2023-07-22T00:32:01;101271.72;;;15.72;100.00
74103;BME280;62853;46.166;3.640;2023-07-22T00:34:27;101259.94;;;15.76;100.00
74103;BME280;62853;46.166;3.640;2023-07-22T00:36:52;101264.06;;;15.80;100.00
74103;BME280;62853;46.166;3.640;2023-07-22T00:39:18;101267.56;;;15.68;100.00
74103;BME280;62853;46.166;3.640;2023-07-22T00:41:43;101263.06;;;15.68;100.00
74103;BME280;62853;46.166;3.640;2023-07-22T00:44:10;101267.44;;;15.69;100.00
74103;BME280;62853;46.166;3.640;2023-07-22T00:46:36;101258.13;;;15.63;100.00
74103;BME280;62853;46.166;3.640;2023-07-22T00:49:02;101259.81;;;15.52;100.00
74103;BME280;62853;46.166;3.640;2023-07-22T00:51:27;101262.56;;;15.50;100.00
74103;BME280;62853;46.166;3.640;2023-07-22T00:53:53;101259.19;;;15.48;100.00
74103;BME280;62853;46.166;3.640;2023-07-22T00:56:19;101255.75;;;15.46;100.00
74103;BME280;62853;46.166;3.640;2023-07-22T00:58:44;101261.50;;;15.53;100.00
74103;BME280;62853;46.166;3.640;2023-07-22T01:01:10;101258.63;;;15.56;100.00
74103;BME280;62853;46.166;3.640;2023-07-22T01:03:35;101258.19;;;15.49;100.00
74103;BME280;62853;46.166;3.640;2023-07-22T01:06:01;101260.34;;;15.57;100.00
74103;BME280;62853;46.166;3.640;2023-07-22T01:08:27;101260.13;;;15.47;100.00
74103;BME280;62853;46.166;3.640;2023-07-22T01:10:53;101250.66;;;15.56;100.00
74103;BME280;62853;46.166;3.640;2023-07-22T01:13:18;101252.25;;;15.46;100.00
74103;BME280;62853;46.166;3.640;2023-07-22T01:15:44;101255.53;;;15.49;100.00
74103;BME280;62853;46.166;3.640;2023-07-22T01:18:10;101258.31;;;15.35;100.00
74103;BME280;62853;46.166;3.640;2023-07-22T01:20:36;101246.53;;;15.39;100.00
74103;BME280;62853;46.166;3.640;2023-07-22T01:23:02;101244.94;;;15.36;100.00
74103;BME280;62853;46.166;3.640;2023-07-22T01:25:28;101252.56;;;15.41;100.00
74103;BME280;62853;46.166;3.640;2023-07-22T01:27:53;101249.47;;;15.34;100.00
74103;BME280;62853;46.166;3.640;2023-07-22T01:30:19;101242.41;;;15.35;100.00
74103;BME280;62853;46.166;3.640;2023-07-22T01:32:45;101242.41;;;15.35;100.00
74103;BME280;62853;46.166;3.640;2023-07-22T01:35:11;101244.41;;;15.44;100.00
74103;BME280;62853;46.166;3.640;2023-07-22T01:37:37;101238.66;;;15.37;100.00
74103;BME280;62853;46.166;3.640;2023-07-22T01:40:02;101227.31;;;15.35;100.00
74103;BME280;62853;46.166;3.640;2023-07-22T01:42:43;101226.34;;;15.23;100.00
74103;BME280;62853;46.166;3.640;2023-07-22T01:45:09;101225.59;;;15.21;100.00
74103;BME280;62853;46.166;3.640;2023-07-22T01:47:36;101228.03;;;15.12;100.00
74103;BME280;62853;46.166;3.640;2023-07-22T01:50:03;101227.94;;;15.13;100.00
74103;BME280;62853;46.166;3.640;2023-07-22T01:52:28;101230.34;;;15.03;100.00
74103;BME280;62853;46.166;3.640;2023-07-22T01:54:54;101224.41;;;15.00;100.00
74103;BME280;62853;46.166;3.640;2023-07-22T01:57:19;101222.06;;;14.95;100.00
74103;BME280;62853;46.166;3.640;2023-07-22T01:59:45;101228.00;;;14.99;100.00
74103;BME280;62853;46.166;3.640;2023-07-22T02:02:10;101223.31;;;14.90;100.00
74103;BME280;62853;46.166;3.640;2023-07-22T02:04:36;101215.44;;;14.75;100.00
74103;BME280;62853;46.166;3.640;2023-07-22T02:07:01;101225.00;;;14.78;100.00
74103;BME280;62853;46.166;3.640;2023-07-22T02:09:26;101218.28;;;14.72;100.00
74103;BME280;62853;46.166;3.640;2023-07-22T02:11:52;101218.72;;;14.79;100.00
74103;BME280;62853;46.166;3.640;2023-07-22T02:14:18;101225.63;;;14.81;100.00
74103;BME280;62853;46.166;3.640;2023-07-22T02:16:43;101222.25;;;14.79;100.00
74103;BME280;62853;46.166;3.640;2023-07-22T02:19:09;101219.16;;;14.85;100.00
74103;BME280;62853;46.166;3.640;2023-07-22T02:21:34;101221.50;;;14.90;100.00
74103;BME280;62853;46.166;3.640;2023-07-22T02:24:00;101214.28;;;14.79;100.00
74103;BME280;62853;46.166;3.640;2023-07-22T02:26:25;101213.41;;;14.79;100.00
74103;BME280;62853;46.166;3.640;2023-07-22T02:28:50;101215.97;;;14.80;100.00
74103;BME280;62853;46.166;3.640;2023-07-22T02:31:16;101213.31;;;14.80;100.00
74103;BME280;62853;46.166;3.640;2023-07-22T02:33:41;101214.28;;;14.79;100.00
74103;BME280;62853;46.166;3.640;2023-07-22T02:36:06;101208.00;;;14.80;100.00
74103;BME280;62853;46.166;3.640;2023-07-22T02:38:32;101220.22;;;14.83;100.00
74103;BME280;62853;46.166;3.640;2023-07-22T02:41:02;101217.28;;;14.87;100.00
74103;BME280;62853;46.166;3.640;2023-07-22T02:43:28;101217.47;;;14.84;100.00
74103;BME280;62853;46.166;3.640;2023-07-22T02:45:54;101215.47;;;14.88;100.00
74103;BME280;62853;46.166;3.640;2023-07-22T02:48:20;101215.56;;;14.86;100.00
74103;BME280;62853;46.166;3.640;2023-07-22T02:50:45;101202.91;;;14.77;100.00
74103;BME280;62853;46.166;3.640;2023-07-22T02:53:11;101210.47;;;14.83;100.00
74103;BME280;62853;46.166;3.640;2023-07-22T02:55:36;101208.44;;;14.74;100.00
74103;BME280;62853;46.166;3.640;2023-07-22T02:58:02;101215.06;;;14.67;100.00
74103;BME280;62853;46.166;3.640;2023-07-22T03:00:27;101211.22;;;14.58;100.00
74103;BME280;62853;46.166;3.640;2023-07-22T03:02:54;101210.00;;;14.64;100.00
74103;BME280;62853;46.166;3.640;2023-07-22T03:05:25;101208.00;;;14.53;100.00
74103;BME280;62853;46.166;3.640;2023-07-22T03:07:51;101207.56;;;14.46;100.00
74103;BME280;62853;46.166;3.640;2023-07-22T03:10:18;101208.16;;;14.37;100.00
74103;BME280;62853;46.166;3.640;2023-07-22T03:12:43;101211.03;;;14.34;100.00
74103;BME280;62853;46.166;3.640;2023-07-22T03:15:09;101218.22;;;14.32;100.00
74103;BME280;62853;46.166;3.640;2023-07-22T03:17:35;101226.66;;;14.24;100.00
74103;BME280;62853;46.166;3.640;2023-07-22T03:20:03;101219.34;;;14.28;100.00
74103;BME280;62853;46.166;3.640;2023-07-22T03:22:33;101218.91;;;14.21;100.00
74103;BME280;62853;46.166;3.640;2023-07-22T03:24:59;101225.63;;;14.12;100.00
74103;BME280;62853;46.166;3.640;2023-07-22T03:27:24;101221.00;;;14.16;100.00
74103;BME280;62853;46.166;3.640;2023-07-22T03:29:50;101224.34;;;14.05;100.00
74103;BME280;62853;46.166;3.640;2023-07-22T03:32:15;101224.44;;;14.04;100.00
74103;BME280;62853;46.166;3.640;2023-07-22T03:34:40;101223.69;;;14.02;100.00
74103;BME280;62853;46.166;3.640;2023-07-22T03:37:06;101223.59;;;14.03;100.00
74103;BME280;62853;46.166;3.640;2023-07-22T03:39:32;101233.63;;;13.98;100.00
74103;BME280;62853;46.166;3.640;2023-07-22T03:41:57;101225.56;;;14.00;100.00
74103;BME280;62853;46.166;3.640;2023-07-22T03:44:22;101224.72;;;13.99;100.00
74103;BME280;62853;46.166;3.640;2023-07-22T03:46:48;101238.44;;;13.91;100.00
74103;BME280;62853;46.166;3.640;2023-07-22T03:49:14;101234.47;;;13.99;100.00
74103;BME280;62853;46.166;3.640;2023-07-22T03:51:39;101232.84;;;13.96;100.00
74103;BME280;62853;46.166;3.640;2023-07-22T03:54:04;101229.16;;;13.99;100.00
74103;BME280;62853;46.166;3.640;2023-07-22T03:56:30;101232.84;;;13.96;100.00
74103;BME280;62853;46.166;3.640;2023-07-22T03:58:55;101228.88;;;13.89;100.00
74103;BME280;62853;46.166;3.640;2023-07-22T04:01:21;101227.44;;;13.98;100.00
74103;BME280;62853;46.166;3.640;2023-07-22T04:03:46;101221.50;;;13.94;100.00
74103;BME280;62853;46.166;3.640;2023-07-22T04:06:11;101226.81;;;13.94;100.00
74103;BME280;62853;46.166;3.640;2023-07-22T04:08:37;101222.25;;;13.96;100.00
74103;BME280;62853;46.166;3.640;2023-07-22T04:11:02;101223.69;;;14.02;100.00
74103;BME280;62853;46.166;3.640;2023-07-22T04:13:28;101229.34;;;13.95;100.00
74103;BME280;62853;46.166;3.640;2023-07-22T04:15:54;101227.44;;;13.98;100.00
74103;BME280;62853;46.166;3.640;2023-07-22T04:18:20;101223.03;;;13.98;100.00
74103;BME280;62853;46.166;3.640;2023-07-22T04:20:46;101225.22;;;13.91;100.00
74103;BME280;62853;46.166;3.640;2023-07-22T04:23:14;101228.03;;;13.88;100.00
74103;BME280;62853;46.166;3.640;2023-07-22T04:25:41;101226.88;;;13.92;100.00
74103;BME280;62853;46.166;3.640;2023-07-22T04:28:06;101219.50;;;13.98;100.00
74103;BME280;62853;46.166;3.640;2023-07-22T04:30:33;101222.16;;;13.98;100.00
74103;BME280;62853;46.166;3.640;2023-07-22T04:32:58;101228.19;;;14.00;100.00
74103;BME280;62853;46.166;3.640;2023-07-22T04:35:23;101229.81;;;14.02;100.00
74103;BME280;62853;46.166;3.640;2023-07-22T04:37:49;101225.72;;;14.11;100.00
74103;BME280;62853;46.166;3.640;2023-07-22T04:40:14;101231.78;;;14.13;100.00
74103;BME280;62853;46.166;3.640;2023-07-22T04:42:42;101238.00;;;14.26;100.00
74103;BME280;62853;46.166;3.640;2023-07-22T04:45:08;101240.06;;;14.36;100.00
74103;BME280;62853;46.166;3.640;2023-07-22T04:47:35;101229.94;;;14.42;100.00
74103;BME280;62853;46.166;3.640;2023-07-22T04:50:01;101234.22;;;14.58;100.00
74103;BME280;62853;46.166;3.640;2023-07-22T04:52:26;101235.34;;;14.54;100.00
74103;BME280;62853;46.166;3.640;2023-07-22T04:54:52;101244.25;;;14.67;100.00
74103;BME280;62853;46.166;3.640;2023-07-22T04:57:18;101246.69;;;14.70;100.00
74103;BME280;62853;46.166;3.640;2023-07-22T04:59:44;101243.03;;;14.85;100.00
74103;BME280;62853;46.166;3.640;2023-07-22T05:02:09;101240.81;;;14.92;100.00
74103;BME280;62853;46.166;3.640;2023-07-22T05:04:35;101243.72;;;15.02;100.00
74103;BME280;62853;46.166;3.640;2023-07-22T05:07:00;101246.47;;;15.00;100.00
74103;BME280;62853;46.166;3.640;2023-07-22T05:09:25;101244.88;;;14.98;100.00
74103;BME280;62853;46.166;3.640;2023-07-22T05:11:51;101246.75;;;14.96;100.00
74103;BME280;62853;46.166;3.640;2023-07-22T05:14:16;101245.72;;;14.98;100.00
74103;BME280;62853;46.166;3.640;2023-07-22T05:16:41;101246.75;;;14.96;100.00
74103;BME280;62853;46.166;3.640;2023-07-22T05:19:07;101242.88;;;15.01;100.00
74103;BME280;62853;46.166;3.640;2023-07-22T05:21:33;101245.00;;;15.09;100.00
74103;BME280;62853;46.166;3.640;2023-07-22T05:23:59;101249.34;;;15.10;100.00
74103;BME280;62853;46.166;3.640;2023-07-22T05:26:24;101246.84;;;15.21;100.00
74103;BME280;62853;46.166;3.640;2023-07-22T05:28:49;101250.56;;;15.32;100.00
74103;BME280;62853;46.166;3.640;2023-07-22T05:31:16;101251.50;;;15.31;100.00
74103;BME280;62853;46.166;3.640;2023-07-22T05:33:41;101255.22;;;15.28;100.00
74103;BME280;62853;46.166;3.640;2023-07-22T05:36:07;101255.88;;;15.32;100.00
74103;BME280;62853;46.166;3.640;2023-07-22T05:38:32;101255.31;;;15.39;100.00
74103;BME280;62853;46.166;3.640;2023-07-22T05:40:58;101261.59;;;15.38;100.00
74103;BME280;62853;46.166;3.640;2023-07-22T05:43:23;101257.78;;;15.42;100.00
74103;BME280;62853;46.166;3.640;2023-07-22T05:45:49;101250.44;;;15.46;100.00
74103;BME280;62853;46.166;3.640;2023-07-22T05:48:14;101240.91;;;15.43;100.00
74103;BME280;62853;46.166;3.640;2023-07-22T05:50:40;101247.59;;;15.49;100.00
74103;BME280;62853;46.166;3.640;2023-07-22T05:53:06;101241.97;;;15.54;100.00
74103;BME280;62853;46.166;3.640;2023-07-22T05:55:31;101245.25;;;15.57;100.00
74103;BME280;62853;46.166;3.640;2023-07-22T05:57:56;101247.91;;;15.57;100.00
74103;BME280;62853;46.166;3.640;2023-07-22T06:00:22;101239.53;;;15.63;100.00
74103;BME280;62853;46.166;3.640;2023-07-22T06:02:48;101244.53;;;15.81;100.00
74103;BME280;62853;46.166;3.640;2023-07-22T06:05:13;101240.03;;;15.94;100.00
74103;BME280;62853;46.166;3.640;2023-07-22T06:07:39;101235.78;;;16.05;100.00
74103;BME280;62853;46.166;3.640;2023-07-22T06:10:05;101233.63;;;16.10;100.00
74103;BME280;62853;46.166;3.640;2023-07-22T06:12:31;101232.97;;;16.19;100.00
74103;BME280;62853;46.166;3.640;2023-07-22T06:14:56;101230.03;;;16.35;100.00
74103;BME280;62853;46.166;3.640;2023-07-22T06:17:22;101237.22;;;16.46;100.00
74103;BME280;62853;46.166;3.640;2023-07-22T06:19:48;101228.88;;;16.63;100.00
74103;BME280;62853;46.166;3.640;2023-07-22T06:22:13;101226.78;;;16.80;100.00
74103;BME280;62853;46.166;3.640;2023-07-22T06:24:38;101231.53;;;16.87;100.00
74103;BME280;62853;46.166;3.640;2023-07-22T06:27:04;101230.56;;;16.88;100.00
74103;BME280;62853;46.166;3.640;2023-07-22T06:29:29;101235.66;;;16.91;100.00
74103;BME280;62853;46.166;3.640;2023-07-22T06:31:55;101230.22;;;16.93;100.00
74103;BME280;62853;46.166;3.640;2023-07-22T06:34:20;101231.63;;;16.86;100.00
74103;BME280;62853;46.166;3.640;2023-07-22T06:36:46;101237.94;;;16.85;100.00
74103;BME280;62853;46.166;3.640;2023-07-22T06:39:11;101224.72;;;16.83;100.00
74103;BME280;62853;46.166;3.640;2023-07-22T06:41:36;101231.19;;;16.92;100.00
74103;BME280;62853;46.166;3.640;2023-07-22T06:44:02;101231.63;;;17.10;100.00
74103;BME280;62853;46.166;3.640;2023-07-22T06:46:27;101232.72;;;17.30;100.00
74103;BME280;62853;46.166;3.640;2023-07-22T06:48:52;101228.16;;;17.55;100.00
74103;BME280;62853;46.166;3.640;2023-07-22T06:51:18;101225.03;;;17.83;100.00
74103;BME280;62853;46.166;3.640;2023-07-22T06:53:43;101225.66;;;18.10;100.00
74103;BME280;62853;46.166;3.640;2023-07-22T06:56:08;101229.69;;;18.36;100.00
74103;BME280;62853;46.166;3.640;2023-07-22T06:58:34;101224.75;;;18.64;100.00
74103;BME280;62853;46.166;3.640;2023-07-22T07:00:59;101219.22;;;18.88;100.00
74103;BME280;62853;46.166;3.640;2023-07-22T07:03:25;101219.13;;;19.11;100.00
74103;BME280;62853;46.166;3.640;2023-07-22T07:05:54;101215.53;;;19.22;100.00
74103;BME280;62853;46.166;3.640;2023-07-22T07:08:20;101214.91;;;19.39;100.00
74103;BME280;62853;46.166;3.640;2023-07-22T07:10:45;101207.97;;;19.58;100.00
74103;BME280;62853;46.166;3.640;2023-07-22T07:13:10;101212.03;;;19.83;100.00
74103;BME280;62853;46.166;3.640;2023-07-22T07:15:36;101210.13;;;20.04;100.00
74103;BME280;62853;46.166;3.640;2023-07-22T07:18:01;101202.47;;;20.50;100.00
74103;BME280;62853;46.166;3.640;2023-07-22T07:20:27;101203.16;;;21.68;100.00
74103;BME280;62853;46.166;3.640;2023-07-22T07:22:52;101197.09;;;22.57;100.00
74103;BME280;62853;46.166;3.640;2023-07-22T07:25:17;101194.69;;;22.90;100.00
74103;BME280;62853;46.166;3.640;2023-07-22T07:27:43;101193.22;;;23.14;98.62
74103;BME280;62853;46.166;3.640;2023-07-22T07:30:08;101194.97;;;23.05;100.00
74103;BME280;62853;46.166;3.640;2023-07-22T07:32:35;101195.31;;;22.84;100.00
74103;BME280;62853;46.166;3.640;2023-07-22T07:35:01;101195.28;;;22.40;100.00
74103;BME280;62853;46.166;3.640;2023-07-22T07:37:26;101200.06;;;21.90;100.00
74103;BME280;62853;46.166;3.640;2023-07-22T07:39:52;101202.50;;;21.46;100.00
74103;BME280;62853;46.166;3.640;2023-07-22T07:42:17;101203.28;;;21.09;100.00
74103;BME280;62853;46.166;3.640;2023-07-22T07:44:42;101206.44;;;20.85;100.00
74103;BME280;62853;46.166;3.640;2023-07-22T07:47:08;101212.66;;;20.66;100.00
74103;BME280;62853;46.166;3.640;2023-07-22T07:49:33;101207.81;;;20.60;100.00
74103;BME280;62853;46.166;3.640;2023-07-22T07:51:59;101215.91;;;20.79;100.00
74103;BME280;62853;46.166;3.640;2023-07-22T07:54:24;101207.88;;;20.79;100.00
74103;BME280;62853;46.166;3.640;2023-07-22T07:56:50;101217.16;;;20.95;100.00
74103;BME280;62853;46.166;3.640;2023-07-22T07:59:15;101216.38;;;21.22;100.00
74103;BME280;62853;46.166;3.640;2023-07-22T08:01:41;101206.00;;;21.57;100.00
74103;BME280;62853;46.166;3.640;2023-07-22T08:04:08;101206.75;;;21.39;100.00
74103;BME280;62853;46.166;3.640;2023-07-22T08:06:33;101210.47;;;21.28;100.00
74103;BME280;62853;46.166;3.640;2023-07-22T08:08:59;101215.25;;;21.25;100.00
74103;BME280;62853;46.166;3.640;2023-07-22T08:11:24;101216.94;;;21.35;100.00
74103;BME280;62853;46.166;3.640;2023-07-22T08:13:50;101216.63;;;21.48;100.00
74103;BME280;62853;46.166;3.640;2023-07-22T08:16:17;101208.84;;;21.55;100.00
74103;BME280;62853;46.166;3.640;2023-07-22T08:18:43;101199.16;;;21.72;100.00
74103;BME280;62853;46.166;3.640;2023-07-22T08:21:08;101204.75;;;21.88;100.00
74103;BME280;62853;46.166;3.640;2023-07-22T08:23:35;101208.09;;;22.18;100.00
74103;BME280;62853;46.166;3.640;2023-07-22T08:26:01;101223.94;;;23.37;100.00
74103;BME280;62853;46.166;3.640;2023-07-22T08:28:27;101213.63;;;23.85;84.19
74103;BME280;62853;46.166;3.640;2023-07-22T08:30:55;101212.84;;;23.67;90.59
74103;BME280;62853;46.166;3.640;2023-07-22T08:33:24;101206.81;;;23.38;90.31
74103;BME280;62853;46.166;3.640;2023-07-22T08:35:53;101212.91;;;23.49;91.16
74103;BME280;62853;46.166;3.640;2023-07-22T08:38:18;101210.56;;;24.39;81.82
74103;BME280;62853;46.166;3.640;2023-07-22T08:40:44;101208.72;;;25.47;85.81
74103;BME280;62853;46.166;3.640;2023-07-22T08:43:10;101200.59;;;26.49;68.09
74103;BME280;62853;46.166;3.640;2023-07-22T08:45:37;101206.03;;;27.25;65.07
74103;BME280;62853;46.166;3.640;2023-07-22T08:48:07;101200.44;;;28.01;57.29
74103;BME280;62853;46.166;3.640;2023-07-22T08:50:42;101200.88;;;28.84;55.06
74103;BME280;62853;46.166;3.640;2023-07-22T08:53:10;101190.31;;;30.01;52.96
74103;BME280;62853;46.166;3.640;2023-07-22T08:55:37;101199.44;;;31.15;46.34
74103;BME280;62853;46.166;3.640;2023-07-22T08:58:07;101204.94;;;31.74;45.33
74103;BME280;62853;46.166;3.640;2023-07-22T09:00:33;101207.22;;;32.29;43.33
74103;BME280;62853;46.166;3.640;2023-07-22T09:03:00;101204.38;;;32.99;42.50
74103;BME280;62853;46.166;3.640;2023-07-22T09:05:27;101191.72;;;33.05;40.38
74103;BME280;62853;46.166;3.640;2023-07-22T09:07:53;101195.34;;;32.98;39.07
74103;BME280;62853;46.166;3.640;2023-07-22T09:10:19;101196.94;;;33.31;40.71
74103;BME280;62853;46.166;3.640;2023-07-22T09:12:46;101199.59;;;33.20;38.37
74103;BME280;62853;46.166;3.640;2023-07-22T09:15:12;101198.41;;;32.84;39.16
74103;BME280;62853;46.166;3.640;2023-07-22T09:17:38;101196.75;;;32.25;37.74
74103;BME280;62853;46.166;3.640;2023-07-22T09:20:05;101193.72;;;31.37;41.24
74103;BME280;62853;46.166;3.640;2023-07-22T09:22:34;101200.38;;;30.07;42.94
74103;BME280;62853;46.166;3.640;2023-07-22T09:27:39;101193.09;;;27.95;46.64
74103;BME280;62853;46.166;3.640;2023-07-22T09:32:58;101188.25;;;26.54;52.56
74103;BME280;62853;46.166;3.640;2023-07-22T09:38:08;101185.16;;;26.43;53.77
74103;BME280;62853;46.166;3.640;2023-07-22T09:40:33;101188.31;;;26.23;54.05
74103;BME280;62853;46.166;3.640;2023-07-22T09:43:01;101187.25;;;26.01;53.64
74103;BME280;62853;46.166;3.640;2023-07-22T09:45:31;101197.47;;;26.14;55.86
74103;BME280;62853;46.166;3.640;2023-07-22T09:47:58;101200.69;;;25.70;53.39
74103;BME280;62853;46.166;3.640;2023-07-22T09:50:25;101190.88;;;25.21;58.72
74103;BME280;62853;46.166;3.640;2023-07-22T09:52:55;101183.69;;;24.80;57.66
74103;BME280;62853;46.166;3.640;2023-07-22T09:55:23;101185.50;;;24.47;58.15
74103;BME280;62853;46.166;3.640;2023-07-22T09:57:59;101176.91;;;24.19;60.40
74103;BME280;62853;46.166;3.640;2023-07-22T10:00:29;101196.31;;;23.96;63.11
74103;BME280;62853;46.166;3.640;2023-07-22T10:02:57;101195.47;;;23.53;62.62
74103;BME280;62853;46.166;3.640;2023-07-22T10:05:24;101193.53;;;23.11;66.13
74103;BME280;62853;46.166;3.640;2023-07-22T10:07:53;101189.81;;;22.67;72.09
74103;BME280;62853;46.166;3.640;2023-07-22T10:10:23;101197.63;;;22.43;80.04
74103;BME280;62853;46.166;3.640;2023-07-22T10:12:50;101188.84;;;22.51;81.14
74103;BME280;62853;46.166;3.640;2023-07-22T10:15:16;101191.97;;;22.82;80.00
74103;BME280;62853;46.166;3.640;2023-07-22T10:17:45;101191.66;;;23.29;77.50
74103;BME280;62853;46.166;3.640;2023-07-22T10:20:12;101200.13;;;23.43;71.83
74103;BME280;62853;46.166;3.640;2023-07-22T10:22:44;101190.50;;;23.40;72.05
74103;BME280;62853;46.166;3.640;2023-07-22T10:25:12;101187.66;;;23.42;71.56
74103;BME280;62853;46.166;3.640;2023-07-22T10:27:39;101192.63;;;23.54;77.42
74103;BME280;62853;46.166;3.640;2023-07-22T10:30:09;101192.16;;;23.67;71.01
74103;BME280;62853;46.166;3.640;2023-07-22T10:32:37;101196.00;;;23.99;65.87
74103;BME280;62853;46.166;3.640;2023-07-22T10:35:04;101186.72;;;24.61;62.69
74103;BME280;62853;46.166;3.640;2023-07-22T10:37:33;101185.53;;;25.04;58.17
74103;BME280;62853;46.166;3.640;2023-07-22T10:40:25;101184.47;;;25.22;56.62
74103;BME280;62853;46.166;3.640;2023-07-22T10:43:03;101181.13;;;25.28;55.52
74103;BME280;62853;46.166;3.640;2023-07-22T10:45:33;101178.59;;;25.10;56.08
74103;BME280;62853;46.166;3.640;2023-07-22T10:48:07;101176.56;;;25.29;54.62
74103;BME280;62853;46.166;3.640;2023-07-22T10:50:50;101167.31;;;25.71;52.79
74103;BME280;62853;46.166;3.640;2023-07-22T11:06:31;101156.75;;;25.92;45.97
74103;BME280;62853;46.166;3.640;2023-07-22T11:08:57;101172.88;;;25.69;48.96
74103;BME280;62853;46.166;3.640;2023-07-22T11:11:45;101172.59;;;25.56;51.28
74103;BME280;62853;46.166;3.640;2023-07-22T11:14:14;101173.66;;;25.47;52.55
74103;BME280;62853;46.166;3.640;2023-07-22T11:16:42;101168.72;;;25.58;52.37
74103;BME280;62853;46.166;3.640;2023-07-22T11:19:08;101169.03;;;25.64;50.84
74103;BME280;62853;46.166;3.640;2023-07-22T11:21:33;101167.22;;;25.56;50.86
74103;BME280;62853;46.166;3.640;2023-07-22T11:23:59;101145.31;;;25.51;51.54
74103;BME280;62853;46.166;3.640;2023-07-22T11:26:24;101151.19;;;25.54;51.80
74103;BME280;62853;46.166;3.640;2023-07-22T11:28:49;101146.72;;;25.38;52.65
74103;BME280;62853;46.166;3.640;2023-07-22T11:31:15;101147.00;;;24.79;52.72
74103;BME280;62853;46.166;3.640;2023-07-22T11:33:41;101150.81;;;24.27;52.47
74103;BME280;62853;46.166;3.640;2023-07-22T11:36:09;101145.41;;;24.03;53.85
74103;BME280;62853;46.166;3.640;2023-07-22T11:38:34;101138.69;;;24.23;52.26
74103;BME280;62853;46.166;3.640;2023-07-22T11:41:01;101138.38;;;24.26;51.43
74103;BME280;62853;46.166;3.640;2023-07-22T11:43:27;101139.84;;;24.04;50.95
74103;BME280;62853;46.166;3.640;2023-07-22T11:45:53;101133.66;;;24.12;54.28
74103;BME280;62853;46.166;3.640;2023-07-22T11:48:18;101134.00;;;24.17;51.86
74103;BME280;62853;46.166;3.640;2023-07-22T11:50:44;101136.69;;;24.25;52.27
74103;BME280;62853;46.166;3.640;2023-07-22T11:53:10;101126.75;;;24.26;50.07
74103;BME280;62853;46.166;3.640;2023-07-22T11:55:35;101118.72;;;24.42;53.78
74103;BME280;62853;46.166;3.640;2023-07-22T11:58:01;101122.22;;;24.51;51.25
74103;BME280;62853;46.166;3.640;2023-07-22T12:00:28;101125.13;;;24.58;51.92
74103;BME280;62853;46.166;3.640;2023-07-22T12:02:54;101124.59;;;24.79;52.04
74103;BME280;62853;46.166;3.640;2023-07-22T12:05:22;101125.75;;;24.93;51.36
74103;BME280;62853;46.166;3.640;2023-07-22T12:07:48;101117.63;;;25.09;50.53
74103;BME280;62853;46.166;3.640;2023-07-22T12:10:15;101124.50;;;25.20;47.87
74103;BME280;62853;46.166;3.640;2023-07-22T12:12:45;101113.91;;;25.18;47.62
74103;BME280;62853;46.166;3.640;2023-07-22T12:15:19;101116.75;;;25.33;50.17
74103;BME280;62853;46.166;3.640;2023-07-22T12:17:52;101114.72;;;25.27;50.63
74103;BME280;62853;46.166;3.640;2023-07-22T12:20:18;101107.78;;;25.24;50.78
74103;BME280;62853;46.166;3.640;2023-07-22T12:22:43;101104.47;;;25.14;50.62
74103;BME280;62853;46.166;3.640;2023-07-22T12:25:09;101096.28;;;24.99;48.62
74103;BME280;62853;46.166;3.640;2023-07-22T12:27:36;101085.81;;;25.04;48.79
74103;BME280;62853;46.166;3.640;2023-07-22T12:30:02;101097.22;;;25.15;49.06
74103;BME280;62853;46.166;3.640;2023-07-22T12:32:28;101089.94;;;25.23;47.63
74103;BME280;62853;46.166;3.640;2023-07-22T12:34:53;101098.50;;;25.43;48.64
74103;BME280;62853;46.166;3.640;2023-07-22T12:37:19;101088.88;;;25.41;48.32
74103;BME280;62853;46.166;3.640;2023-07-22T12:39:45;101093.81;;;25.21;45.82
74103;BME280;62853;46.166;3.640;2023-07-22T12:42:11;101088.50;;;25.04;46.60
74103;BME280;62853;46.166;3.640;2023-07-22T12:44:36;101082.66;;;24.84;46.43
74103;BME280;62853;46.166;3.640;2023-07-22T12:47:02;101092.41;;;24.85;45.59
74103;BME280;62853;46.166;3.640;2023-07-22T12:49:27;101098.66;;;24.86;45.65
74103;BME280;62853;46.166;3.640;2023-07-22T12:51:52;101091.72;;;25.00;46.42
74103;BME280;62853;46.166;3.640;2023-07-22T12:54:18;101084.63;;;24.99;45.53
74103;BME280;62853;46.166;3.640;2023-07-22T12:56:43;101076.75;;;24.89;47.54
74103;BME280;62853;46.166;3.640;2023-07-22T12:59:09;101077.59;;;24.90;47.82